createdAt,value
2023-02-13T00:01:16.287Z,14.82
2023-02-13T00:03:44.345Z,16.35
2023-02-13T00:06:12.636Z,15.70
2023-02-13T00:08:40.757Z,15.50
2023-02-13T00:11:08.829Z,18.20
2023-02-13T00:13:40.432Z,17.10
2023-02-13T00:16:14.201Z,19.85
2023-02-13T00:18:44.291Z,18.23
2023-02-13T00:21:15.868Z,17.88
2023-02-13T00:23:45.517Z,16.00
2023-02-13T00:26:17.417Z,15.90
2023-02-13T00:28:49.167Z,26.05
2023-02-13T00:31:21.547Z,18.27
2023-02-13T00:33:52.028Z,16.42
2023-02-13T00:36:24.149Z,16.10
2023-02-13T00:38:54.274Z,19.98
2023-02-13T00:41:23.563Z,19.83
2023-02-13T00:43:55.418Z,19.70
2023-02-13T00:46:25.352Z,15.50
2023-02-13T00:49:02.117Z,23.10
2023-02-13T00:51:39.405Z,20.73
2023-02-13T00:54:16.203Z,22.08
2023-02-13T00:57:00.885Z,22.65
2023-02-13T00:59:51.022Z,21.33
2023-02-13T01:02:28.698Z,20.08
2023-02-13T01:05:01.366Z,23.23
2023-02-13T01:07:31.091Z,21.02
2023-02-13T01:10:00.129Z,22.30
2023-02-13T01:12:31.699Z,22.25
2023-02-13T01:15:18.847Z,21.02
2023-02-13T01:17:50.351Z,24.17
2023-02-13T01:20:20.034Z,25.08
2023-02-13T01:22:50.581Z,18.42
2023-02-13T01:25:29.058Z,19.20
2023-02-13T01:27:58.875Z,26.80
2023-02-13T01:30:32.187Z,25.05
2023-02-13T01:33:27.168Z,26.63
2023-02-13T01:36:02.921Z,35.03
2023-02-13T01:38:35.344Z,26.48
2023-02-13T01:41:04.852Z,20.90
2023-02-13T01:43:49.832Z,29.48
2023-02-13T01:46:25.871Z,27.05
2023-02-13T01:49:01.199Z,29.25
2023-02-13T01:51:36.496Z,28.13
2023-02-13T01:54:09.606Z,27.52
2023-02-13T01:59:39.592Z,30.23
2023-02-13T02:02:30.981Z,23.75
2023-02-13T02:05:17.243Z,24.08
2023-02-13T02:07:59.206Z,27.45
2023-02-13T02:10:36.977Z,26.13
2023-02-13T02:13:12.427Z,25.20
2023-02-13T02:15:48.977Z,25.30
2023-02-13T02:18:24.577Z,29.02
2023-02-13T02:21:45.359Z,28.85
2023-02-13T02:24:50.017Z,27.02
2023-02-13T02:27:49.736Z,31.10
2023-02-13T02:31:04.485Z,29.88
2023-02-13T02:34:25.498Z,22.10
2023-02-13T02:37:15.536Z,23.95
2023-02-13T02:40:24.296Z,27.77
2023-02-13T02:43:31.863Z,32.40
2023-02-13T02:46:26.804Z,30.25
2023-02-13T02:49:27.601Z,32.22
2023-02-13T02:55:15.820Z,29.10
2023-02-13T02:58:18.893Z,28.65
2023-02-13T03:01:08.748Z,28.92
2023-02-13T03:03:56.040Z,31.13
2023-02-13T03:06:33.369Z,31.63
2023-02-13T03:09:20.181Z,29.20
2023-02-13T03:12:10.700Z,28.23
2023-02-13T03:14:39.847Z,34.13
2023-02-13T03:17:29.934Z,29.15
2023-02-13T03:20:27.707Z,27.25
2023-02-13T03:23:10.178Z,30.73
2023-02-13T03:25:50.680Z,34.28
2023-02-13T03:28:43.853Z,35.10
2023-02-13T03:31:23.634Z,33.95
2023-02-13T03:34:01.507Z,35.13
2023-02-13T03:36:56.548Z,46.15
2023-02-13T03:39:39.050Z,45.05
2023-02-13T03:42:11.354Z,40.47
2023-02-13T03:44:45.729Z,44.97
2023-02-13T03:47:17.852Z,47.03
2023-02-13T03:50:07.010Z,34.42
2023-02-13T03:52:44.139Z,47.33
2023-02-13T03:55:35.048Z,40.45
2023-02-13T03:58:23.861Z,44.72
2023-02-13T04:00:57.495Z,31.85
2023-02-13T04:03:30.667Z,29.38
2023-02-13T04:06:06.670Z,30.30
2023-02-13T04:08:35.439Z,30.55
2023-02-13T04:11:11.539Z,28.40
2023-02-13T04:13:44.850Z,28.98
2023-02-13T04:16:19.492Z,33.63
2023-02-13T04:18:50.528Z,33.58
2023-02-13T04:21:19.014Z,30.30
2023-02-13T04:23:47.201Z,31.50
2023-02-13T04:26:20.364Z,30.92
2023-02-13T04:28:50.648Z,34.42
2023-02-13T04:31:19.753Z,37.08
2023-02-13T04:33:48.230Z,30.08
2023-02-13T04:36:17.137Z,31.92
2023-02-13T04:38:47.044Z,26.95
2023-02-13T04:41:16.778Z,29.08
2023-02-13T04:43:45.267Z,36.10
2023-02-13T04:46:14.627Z,32.90
2023-02-13T04:48:45.084Z,31.10
2023-02-13T04:51:15.927Z,33.97
2023-02-13T04:53:47.192Z,32.92
2023-02-13T04:56:19.833Z,31.58
2023-02-13T04:58:52.822Z,35.72
2023-02-13T05:01:26.652Z,31.15
2023-02-13T05:03:59.285Z,30.17
2023-02-13T05:06:28.594Z,33.03
2023-02-13T05:09:08.228Z,35.38
2023-02-13T05:11:38.842Z,29.45
2023-02-13T05:14:08.076Z,33.70
2023-02-13T05:16:37.307Z,28.98
2023-02-13T05:19:06.412Z,25.35
2023-02-13T05:21:52.506Z,35.15
2023-02-13T05:24:21.685Z,34.35
2023-02-13T05:27:13.419Z,27.70
2023-02-13T05:29:50.092Z,29.00
2023-02-13T05:32:22.740Z,31.30
2023-02-13T05:34:56.048Z,34.65
2023-02-13T05:37:25.585Z,29.67
2023-02-13T05:39:57.025Z,30.45
2023-02-13T05:43:01.407Z,35.28
2023-02-13T05:45:40.204Z,28.40
2023-02-13T05:48:08.920Z,34.50
2023-02-13T05:50:37.468Z,33.70
2023-02-13T05:53:05.740Z,26.27
2023-02-13T05:55:34.196Z,28.10
2023-02-13T05:58:04.208Z,34.55
2023-02-13T06:00:32.512Z,31.58
2023-02-13T06:03:00.667Z,39.72
2023-02-13T06:05:28.886Z,33.15
2023-02-13T06:07:56.920Z,34.72
2023-02-13T06:10:25.013Z,38.60
2023-02-13T06:12:53.126Z,33.33
2023-02-13T06:15:22.642Z,33.58
2023-02-13T06:17:50.699Z,28.05
2023-02-13T06:20:19.084Z,31.20
2023-02-13T06:22:49.978Z,30.17
2023-02-13T06:25:20.229Z,35.00
2023-02-13T06:27:50.790Z,30.40
2023-02-13T06:30:21.140Z,32.70
2023-02-13T06:32:52.755Z,32.78
2023-02-13T06:35:22.466Z,31.17
2023-02-13T06:37:52.342Z,35.65
2023-02-13T06:40:22.723Z,31.23
2023-02-13T06:42:52.558Z,31.33
2023-02-13T06:45:24.500Z,28.40
2023-02-13T06:47:55.454Z,32.60
2023-02-13T06:50:25.929Z,35.15
2023-02-13T06:52:55.328Z,41.08
2023-02-13T06:55:24.564Z,35.80
2023-02-13T06:57:55.149Z,32.33
2023-02-13T07:00:26.870Z,28.42
2023-02-13T07:03:05.093Z,35.78
2023-02-13T07:05:35.396Z,29.70
2023-02-13T07:08:04.838Z,29.02
2023-02-13T07:10:34.848Z,34.88
2023-02-13T07:13:06.263Z,40.25
2023-02-13T07:15:36.992Z,32.72
2023-02-13T07:18:08.381Z,29.58
2023-02-13T07:20:39.023Z,27.83
2023-02-13T07:23:09.891Z,31.10
2023-02-13T07:25:42.375Z,27.98
2023-02-13T07:28:12.424Z,30.70
2023-02-13T07:30:42.264Z,30.10
2023-02-13T07:33:14.212Z,30.13
2023-02-13T07:35:48.797Z,28.05
2023-02-13T07:38:19.069Z,28.48
2023-02-13T07:40:48.929Z,29.13
2023-02-13T07:43:18.332Z,22.75
2023-02-13T07:45:48.598Z,20.95
2023-02-13T07:48:20.081Z,23.85
2023-02-13T07:50:49.885Z,23.73
2023-02-13T07:53:32.572Z,30.45
2023-02-13T07:56:27.370Z,29.20
2023-02-13T08:02:03.702Z,27.30
2023-02-13T08:04:47.374Z,39.80
2023-02-13T08:07:28.610Z,34.92
2023-02-13T08:10:21.919Z,36.35
2023-02-13T08:13:03.818Z,31.58
2023-02-13T08:15:39.725Z,29.52
2023-02-13T08:18:19.718Z,30.35
2023-02-13T08:21:00.552Z,33.28
2023-02-13T08:23:43.534Z,27.77
2023-02-13T08:26:21.769Z,32.28
2023-02-13T08:29:06.102Z,29.23
2023-02-13T08:31:45.944Z,32.63
2023-02-13T08:34:21.360Z,30.55
2023-02-13T08:37:06.024Z,30.40
2023-02-13T08:39:44.172Z,37.00
2023-02-13T08:42:25.422Z,35.00
2023-02-13T08:45:02.633Z,36.72
2023-02-13T08:47:58.815Z,36.70
2023-02-13T08:50:37.126Z,33.35
2023-02-13T08:53:23.580Z,35.42
2023-02-13T08:56:02.410Z,32.40
2023-02-13T08:58:45.991Z,33.05
2023-02-13T09:01:24.982Z,35.13
2023-02-13T09:04:14.193Z,28.55
2023-02-13T09:06:58.704Z,25.92
2023-02-13T09:09:44.863Z,26.20
2023-02-13T09:12:17.555Z,26.88
2023-02-13T09:14:51.242Z,26.45
2023-02-13T09:17:33.411Z,31.75
2023-02-13T09:20:11.669Z,26.45
2023-02-13T09:22:50.849Z,26.48
2023-02-13T09:25:27.071Z,25.10
2023-02-13T09:28:04.892Z,27.58
2023-02-13T09:30:40.135Z,25.75
2023-02-13T09:33:16.263Z,30.60
2023-02-13T09:35:52.338Z,24.65
2023-02-13T09:38:27.831Z,25.30
2023-02-13T09:41:07.376Z,20.67
2023-02-13T09:43:43.336Z,26.17
2023-02-13T09:46:22.907Z,21.25
2023-02-13T09:49:03.140Z,19.90
2023-02-13T09:51:34.621Z,20.25
2023-02-13T09:54:11.788Z,22.25
2023-02-13T09:56:58.347Z,22.17
2023-02-13T09:59:46.762Z,18.13
2023-02-13T10:02:50.407Z,24.75
2023-02-13T10:05:43.871Z,22.88
2023-02-13T10:08:29.189Z,21.42
2023-02-13T10:11:10.744Z,19.77
2023-02-13T10:13:59.705Z,21.67
2023-02-13T10:16:39.961Z,17.80
2023-02-13T10:19:31.685Z,18.65
2023-02-13T10:22:10.377Z,20.58
2023-02-13T10:24:48.258Z,20.90
2023-02-13T10:27:26.588Z,18.17
2023-02-13T10:30:13.524Z,16.05
2023-02-13T10:33:12.122Z,17.20
2023-02-13T10:35:48.029Z,18.25
2023-02-13T10:38:28.006Z,18.30
2023-02-13T10:41:24.094Z,15.98
2023-02-13T10:44:19.368Z,18.73
2023-02-13T10:47:04.300Z,16.70
2023-02-13T10:49:59.542Z,30.42
2023-02-13T10:52:41.168Z,17.98
2023-02-13T10:55:25.770Z,18.92
2023-02-13T10:58:18.922Z,18.08
2023-02-13T11:00:56.575Z,21.35
2023-02-13T11:03:34.631Z,18.80
2023-02-13T11:06:15.992Z,23.38
2023-02-13T11:08:52.276Z,20.52
2023-02-13T11:11:35.078Z,17.80
2023-02-13T11:14:21.027Z,18.40
2023-02-13T11:17:00.809Z,17.00
2023-02-13T11:19:39.791Z,20.25
2023-02-13T11:22:15.025Z,22.73
2023-02-13T11:24:57.391Z,20.73
2023-02-13T11:27:35.919Z,15.98
2023-02-13T11:30:15.842Z,17.63
2023-02-13T11:33:09.253Z,19.25
2023-02-13T11:35:50.114Z,14.20
2023-02-13T11:38:28.464Z,17.45
2023-02-13T11:41:07.736Z,16.13
2023-02-13T11:43:39.266Z,14.23
2023-02-13T11:46:10.538Z,18.73
2023-02-13T11:48:41.172Z,15.70
2023-02-13T11:54:04.453Z,16.77
2023-02-13T11:57:10.865Z,16.45
2023-02-13T11:59:50.935Z,16.85
2023-02-13T12:02:24.967Z,18.55
2023-02-13T12:04:58.183Z,21.83
2023-02-13T12:10:36.908Z,15.70
2023-02-13T12:13:17.914Z,15.27
2023-02-13T12:15:55.251Z,13.75
2023-02-13T12:18:36.516Z,15.57
2023-02-13T12:21:24.150Z,12.63
2023-02-13T12:24:09.960Z,17.15
2023-02-13T12:26:45.136Z,15.57
2023-02-13T12:29:36.161Z,16.05
2023-02-13T12:32:21.377Z,15.50
2023-02-13T12:35:07.784Z,12.13
2023-02-13T12:37:57.057Z,13.02
2023-02-13T12:41:02.953Z,16.77
2023-02-13T12:44:10.413Z,14.35
2023-02-13T12:46:59.063Z,13.15
2023-02-13T12:49:57.952Z,16.27
2023-02-13T12:52:43.481Z,13.63
2023-02-13T12:55:37.664Z,13.05
2023-02-13T12:58:36.342Z,14.57
2023-02-13T13:01:25.443Z,16.40
2023-02-13T13:04:15.391Z,14.57
2023-02-13T13:07:00.415Z,13.77
2023-02-13T13:10:00.989Z,16.55
2023-02-13T13:12:52.421Z,17.13
2023-02-13T13:15:50.722Z,16.73
2023-02-13T13:18:40.202Z,14.00
2023-02-13T13:21:36.060Z,15.65
2023-02-13T13:24:26.861Z,14.60
2023-02-13T13:27:02.003Z,12.93
2023-02-13T13:29:43.100Z,15.10
2023-02-13T13:32:20.087Z,14.05
2023-02-13T13:34:50.598Z,11.25
2023-02-13T13:37:30.042Z,14.48
2023-02-13T13:40:05.095Z,13.00
2023-02-13T13:42:41.190Z,12.80
2023-02-13T13:45:26.628Z,14.27
2023-02-13T13:48:45.887Z,10.52
2023-02-13T13:51:19.212Z,13.43
2023-02-13T13:54:35.592Z,10.80
2023-02-13T13:57:09.941Z,12.57
2023-02-13T14:00:03.796Z,12.70
2023-02-13T14:02:46.122Z,9.48
2023-02-13T14:05:30.106Z,10.75
2023-02-13T14:08:14.275Z,10.88
2023-02-13T14:11:11.059Z,10.73
2023-02-13T14:13:49.234Z,12.35
2023-02-13T14:16:46.712Z,10.23
2023-02-13T14:19:31.800Z,14.05
2023-02-13T14:22:34.047Z,13.23
2023-02-13T14:25:23.506Z,12.77
2023-02-13T14:28:00.110Z,12.15
2023-02-13T14:30:32.246Z,15.13
2023-02-13T14:33:07.012Z,13.18
2023-02-13T14:35:42.420Z,14.50
2023-02-13T14:38:34.654Z,11.23
2023-02-13T14:41:09.109Z,13.35
2023-02-13T14:44:06.316Z,13.50
2023-02-13T14:46:57.061Z,14.77
2023-02-13T14:49:38.978Z,13.98
2023-02-13T14:52:27.723Z,10.75
2023-02-13T14:55:09.649Z,12.10
2023-02-13T14:58:16.563Z,12.43
2023-02-13T15:01:02.648Z,12.85
2023-02-13T15:03:42.025Z,13.52
2023-02-13T15:06:20.436Z,11.65
2023-02-13T15:08:53.503Z,15.35
2023-02-13T15:11:48.607Z,11.57
2023-02-13T15:14:41.002Z,15.38
2023-02-13T15:17:22.884Z,14.57
2023-02-13T15:19:59.186Z,15.75
2023-02-13T15:25:40.365Z,11.43
2023-02-13T15:28:28.120Z,16.58
2023-02-13T15:31:16.956Z,13.50
2023-02-13T15:34:07.062Z,13.30
2023-02-13T15:36:42.165Z,12.82
2023-02-13T15:39:21.523Z,12.50
2023-02-13T15:41:54.339Z,17.15
2023-02-13T15:44:32.496Z,14.95
2023-02-13T15:47:07.649Z,11.25
2023-02-13T15:49:43.993Z,12.07
2023-02-13T15:52:22.863Z,11.45
2023-02-13T15:54:53.789Z,15.70
2023-02-13T15:57:25.038Z,10.50
2023-02-13T16:00:05.982Z,12.93
2023-02-13T16:02:51.335Z,12.15
2023-02-13T16:05:39.516Z,11.77
2023-02-13T16:08:44.658Z,14.63
2023-02-13T16:11:27.140Z,12.93
2023-02-13T16:14:10.841Z,11.93
2023-02-13T16:16:49.161Z,14.50
2023-02-13T16:19:40.889Z,15.10
2023-02-13T16:22:24.702Z,20.58
2023-02-13T16:24:59.152Z,16.50
2023-02-13T16:27:29.839Z,18.02
2023-02-13T16:30:01.591Z,20.58
2023-02-13T16:32:33.689Z,18.98
2023-02-13T16:35:38.303Z,12.52
2023-02-13T16:38:23.575Z,12.57
2023-02-13T16:40:55.600Z,12.68
2023-02-13T16:43:46.771Z,16.67
2023-02-13T16:46:30.951Z,16.88
2023-02-13T16:49:20.910Z,14.23
2023-02-13T16:51:53.854Z,15.40
2023-02-13T16:54:28.694Z,13.80
2023-02-13T16:57:00.504Z,14.80
2023-02-13T16:59:52.139Z,17.77
2023-02-13T17:02:24.477Z,17.40
2023-02-13T17:05:07.159Z,16.98
2023-02-13T17:08:20.034Z,15.05
2023-02-13T17:11:16.056Z,13.93
2023-02-13T17:13:46.418Z,19.50
2023-02-13T17:16:22.999Z,16.95
2023-02-13T17:18:57.142Z,16.73
2023-02-13T17:21:27.089Z,17.90
2023-02-13T17:31:27.372Z,16.42
2023-02-13T17:33:59.192Z,15.13
2023-02-13T17:36:28.341Z,17.25
2023-02-13T17:38:57.037Z,18.05
2023-02-13T17:41:25.435Z,16.30
2023-02-13T17:43:55.833Z,14.82
2023-02-13T17:46:24.718Z,17.40
2023-02-13T17:48:53.039Z,14.27
2023-02-13T17:51:21.468Z,16.33
2023-02-13T17:53:52.281Z,15.27
2023-02-13T17:56:20.520Z,13.80
2023-02-13T17:58:49.175Z,15.25
2023-02-13T18:01:19.797Z,23.25
2023-02-13T18:03:50.793Z,22.88
2023-02-13T18:06:19.277Z,14.55
2023-02-13T18:08:48.021Z,15.82
2023-02-13T18:11:16.485Z,15.15
2023-02-13T18:13:48.289Z,18.52
2023-02-13T18:16:17.840Z,18.35
2023-02-13T18:18:46.232Z,17.17
2023-02-13T18:21:14.929Z,21.60
2023-02-13T18:23:43.516Z,21.23
2023-02-13T18:26:12.589Z,19.40
2023-02-13T18:28:42.966Z,20.33
2023-02-13T18:31:13.081Z,19.52
2023-02-13T18:33:44.044Z,16.15
2023-02-13T18:39:14.592Z,20.00
2023-02-13T18:41:43.042Z,23.33
2023-02-13T18:44:17.337Z,23.15
2023-02-13T18:46:51.608Z,19.58
2023-02-13T18:49:21.380Z,18.15
2023-02-13T18:51:49.663Z,20.85
2023-02-13T18:54:18.355Z,13.27
2023-02-13T18:56:46.720Z,19.42
2023-02-13T18:59:14.956Z,17.80
2023-02-13T19:01:43.280Z,18.08
2023-02-13T19:04:12.220Z,17.40
2023-02-13T19:06:42.611Z,17.92
2023-02-13T19:09:10.891Z,20.55
2023-02-13T19:11:39.534Z,20.38
2023-02-13T19:14:08.622Z,17.83
2023-02-13T19:16:37.123Z,18.13
2023-02-13T19:19:07.321Z,20.25
2023-02-13T19:21:37.315Z,20.42
2023-02-13T19:24:09.032Z,19.70
2023-02-13T19:26:37.175Z,16.10
2023-02-13T19:29:05.409Z,19.95
2023-02-13T19:31:34.358Z,19.15
2023-02-13T19:34:02.895Z,24.70
2023-02-13T19:36:31.016Z,24.98
2023-02-13T19:39:01.035Z,24.85
2023-02-13T19:41:30.986Z,18.55
2023-02-13T19:44:00.491Z,23.30
2023-02-13T19:46:30.275Z,23.63
2023-02-13T19:48:58.879Z,17.38
2023-02-13T19:51:29.498Z,19.42
2023-02-13T19:53:58.782Z,23.30
2023-02-13T19:56:27.543Z,20.35
2023-02-13T19:58:57.068Z,20.77
2023-02-13T20:01:27.323Z,29.45
2023-02-13T20:03:56.218Z,18.95
2023-02-13T20:06:26.104Z,21.67
2023-02-13T20:08:54.272Z,19.27
2023-02-13T20:11:23.606Z,18.30
2023-02-13T20:13:55.487Z,19.52
2023-02-13T20:16:25.235Z,22.55
2023-02-13T20:18:53.663Z,22.50
2023-02-13T20:21:22.361Z,23.65
2023-02-13T20:23:52.539Z,24.95
2023-02-13T20:26:21.133Z,28.15
2023-02-13T20:28:49.377Z,29.70
2023-02-13T20:31:19.672Z,26.20
2023-02-13T20:33:50.054Z,29.77
2023-02-13T20:36:20.358Z,25.83
2023-02-13T20:38:50.394Z,21.75
2023-02-13T20:41:21.438Z,23.10
2023-02-13T20:43:50.590Z,28.95
2023-02-13T20:46:19.699Z,22.00
2023-02-13T20:48:50.248Z,23.48
2023-02-13T20:51:19.542Z,26.13
2023-02-13T20:53:48.419Z,21.50
2023-02-13T20:56:18.166Z,22.33
2023-02-13T20:58:48.315Z,17.83
2023-02-13T21:01:20.105Z,24.95
2023-02-13T21:03:53.730Z,20.85
2023-02-13T21:06:22.642Z,19.60
2023-02-13T21:08:50.779Z,21.60
2023-02-13T21:11:20.696Z,20.80
2023-02-13T21:13:49.548Z,21.10
2023-02-13T21:16:20.382Z,18.77
2023-02-13T21:18:51.781Z,25.77
2023-02-13T21:21:20.806Z,22.50
2023-02-13T21:23:49.597Z,23.05
2023-02-13T21:26:19.041Z,26.23
2023-02-13T21:28:48.669Z,26.13
2023-02-13T21:31:19.697Z,25.75
2023-02-13T21:33:49.305Z,24.40
2023-02-13T21:36:17.302Z,22.10
2023-02-13T21:38:45.417Z,24.65
2023-02-13T21:41:15.086Z,28.10
2023-02-13T21:43:46.712Z,23.30
2023-02-13T21:46:17.073Z,25.83
2023-02-13T21:48:45.643Z,23.48
2023-02-13T21:51:17.644Z,22.17
2023-02-13T21:53:46.572Z,27.88
2023-02-13T21:56:16.235Z,26.73
2023-02-13T21:58:45.677Z,29.83
2023-02-13T22:01:25.359Z,29.00
2023-02-13T22:03:54.845Z,23.23
2023-02-13T22:06:24.731Z,27.92
2023-02-13T22:08:57.274Z,26.88
2023-02-13T22:11:26.174Z,25.50
2023-02-13T22:13:56.596Z,22.35
2023-02-13T22:16:25.909Z,26.85
2023-02-13T22:18:54.002Z,20.10
2023-02-13T22:21:25.214Z,20.17
2023-02-13T22:23:54.142Z,22.13
2023-02-13T22:26:24.626Z,23.13
2023-02-13T22:28:53.436Z,20.23
2023-02-13T22:31:25.331Z,22.15
2023-02-13T22:34:03.432Z,17.35
2023-02-13T22:36:35.014Z,19.60
2023-02-13T22:39:03.410Z,21.58
2023-02-13T22:41:31.751Z,18.42
2023-02-13T22:43:59.839Z,23.63
2023-02-13T22:46:30.583Z,20.10
2023-02-13T22:48:59.449Z,20.40
2023-02-13T22:51:34.400Z,20.00
2023-02-13T22:54:03.010Z,25.20
2023-02-13T22:56:32.200Z,22.98
2023-02-13T22:59:01.013Z,18.67
2023-02-13T23:01:30.384Z,19.15
2023-02-13T23:03:58.452Z,21.67
2023-02-13T23:06:27.189Z,23.60
2023-02-13T23:08:56.842Z,20.20
2023-02-13T23:11:45.075Z,19.48
2023-02-13T23:14:13.868Z,24.63
2023-02-13T23:17:01.023Z,19.58
2023-02-13T23:19:30.189Z,20.63
2023-02-13T23:21:58.316Z,20.13
2023-02-13T23:24:27.750Z,21.27
2023-02-13T23:26:55.644Z,18.90
2023-02-13T23:29:23.683Z,20.55
2023-02-13T23:31:52.168Z,22.88
2023-02-13T23:34:20.544Z,20.40
2023-02-13T23:36:48.441Z,24.55
2023-02-13T23:39:16.440Z,23.85
2023-02-13T23:41:45.829Z,19.98
2023-02-13T23:44:13.776Z,19.88
2023-02-13T23:46:41.831Z,19.55
2023-02-13T23:49:09.843Z,24.40
2023-02-13T23:51:38.094Z,19.85
2023-02-13T23:54:06.267Z,23.73
2023-02-13T23:56:34.416Z,20.55
2023-02-13T23:59:03.863Z,21.73
